Terminal Aerodrome Forecast
Issued by NWS Brownsville, TX

Home | Current Version | Previous Version | Text Only | Print | Product List | Glossary On
Versions: 1 2 3 4 5 6 7 8 9 10 11 12 13 14 15
000
FTUS44 KBRO 260524
TAFMFE
TAF
KMFE 260524Z 2606/2706 VRB03KT 6SM BR SKC
      TEMPO 2608/2612 1SM BR OVC015
     FM261400 16007KT P6SM BKN020
     FM261800 15013G18KT P6SM SCT040
     FM270300 16010KT 6SM BR BKN020=

USA.gov is the U.S. government's official web portal to all federal, state and local government web resources and services.